Time;durP1;ratioP1;P1;durP2;ratioP2;P2;SDS_P1;SDS_P2;PMS_P1;PMS_P2;Temp;Humidity;BMP_temperature;BMP_pressure;BME280_temperature;BME280_humidity;BME280_pressure;Samples;Min_cycle;Max_cycle;Signal;HPM_P1;HPM_P2
2021/04/09 00:01:53;;;;;;;27.35;13.85;;;102.70;1843.20;;;;;;5052948;28;20041;-60
2021/04/09 00:04:19;;;;;;;28.73;15.25;;;102.70;1817.60;;;;;;5052978;28;20021;-57
2021/04/09 00:06:46;;;;;;;21.73;14.32;;;102.70;1817.60;;;;;;5053196;28;20040;-65
2021/04/09 00:09:12;;;;;;;40.13;23.02;;;102.80;1817.60;;;;;;5053260;28;20375;-62
2021/04/09 00:11:40;;;;;;;63.45;33.72;;;102.80;1792.00;;;;;;5053196;28;20036;-56
2021/04/09 00:14:12;;;;;;;49.13;27.38;;;102.80;1817.60;;;;;;5052854;28;20033;-59
2021/04/09 00:16:38;;;;;;;39.73;20.13;;;102.80;1792.00;;;;;;5052964;28;20033;-57
2021/04/09 00:19:14;;;;;;;41.83;23.88;;;102.80;1817.60;;;;;;5053241;28;20254;-59
2021/04/09 00:21:40;;;;;;;34.08;19.23;;;102.80;1817.60;;;;;;5052957;28;20021;-62
2021/04/09 00:24:07;;;;;;;35.05;20.55;;;102.80;1817.60;;;;;;5052929;28;20025;-56
2021/04/09 00:26:33;;;;;;;24.52;14.20;;;102.70;1817.60;;;;;;5051591;28;20489;-59
2021/04/09 00:28:59;;;;;;;19.40;10.90;;;102.70;1817.60;;;;;;5052524;28;20025;-59
2021/04/09 00:31:25;;;;;;;19.50;12.23;;;102.60;1843.20;;;;;;5052557;28;20167;-66
2021/04/09 00:33:50;;;;;;;18.85;11.02;;;102.40;1894.40;;;;;;5052554;28;20025;-57
2021/04/09 00:36:17;;;;;;;22.90;10.63;;;102.50;1868.80;;;;;;5052674;28;20041;-57
2021/04/09 00:38:46;;;;;;;36.50;20.42;;;102.50;1868.80;;;;;;5052802;28;20029;-58
2021/04/09 00:41:13;;;;;;;35.13;18.73;;;102.60;1868.80;;;;;;5052794;28;20032;-65
2021/04/09 00:43:39;;;;;;;28.60;13.90;;;102.60;1843.20;;;;;;5052068;28;20475;-59
2021/04/09 00:46:06;;;;;;;17.55;9.82;;;102.60;1843.20;;;;;;5052274;28;20033;-59
2021/04/09 00:48:32;;;;;;;47.22;27.00;;;102.50;1868.80;;;;;;5052338;28;20025;-60
2021/04/09 00:50:58;;;;;;;30.73;15.82;;;77.50;1920.00;;;;;;5052337;28;20033;-57
2021/04/09 00:53:25;;;;;;;34.10;18.92;;;77.30;1971.20;;;;;;5052580;28;20420;-63
2021/04/09 00:55:52;;;;;;;35.60;18.63;;;77.50;1920.00;;;;;;5051798;28;20381;-56
2021/04/09 00:58:18;;;;;;;35.78;21.88;;;77.60;1945.60;;;;;;5051961;28;20029;-59
2021/04/09 01:00:44;;;;;;;44.13;23.90;;;77.70;1920.00;;;;;;5052530;28;20025;-58
2021/04/09 01:03:10;;;;;;;45.38;24.45;;;77.70;1945.60;;;;;;5052006;28;20108;-58
2021/04/09 01:05:36;;;;;;;39.22;22.63;;;102.40;1920.00;;;;;;5052308;28;20021;-56
2021/04/09 01:08:05;;;;;;;49.55;26.70;;;102.50;1894.40;;;;;;5052022;28;20040;-60
2021/04/09 01:10:31;;;;;;;30.77;16.33;;;102.50;1894.40;;;;;;5051847;28;20025;-59
2021/04/09 01:12:57;;;;;;;29.02;15.68;;;77.70;1894.40;;;;;;5051844;28;20029;-58
2021/04/09 01:15:23;;;;;;;36.55;20.48;;;77.70;1894.40;;;;;;5051423;28;20033;-59
2021/04/09 01:18:01;;;;;;;27.25;16.23;;;77.60;1894.40;;;;;;5051740;28;20045;-61
2021/04/09 01:20:57;;;;;;;28.55;16.45;;;77.70;1894.40;;;;;;5051966;28;20032;-60
2021/04/09 01:23:35;;;;;;;34.30;19.67;;;77.40;1971.20;;;;;;5051687;28;20471;-56
2021/04/09 01:26:38;;;;;;;38.95;21.67;;;77.40;1971.20;;;;;;5051663;28;20116;-57
2021/04/09 01:29:21;;;;;;;76.72;38.65;;;77.30;1971.20;;;;;;5051833;28;20025;-59
2021/04/09 01:31:52;;;;;;;22.35;12.93;;;77.40;1945.60;;;;;;5051549;28;20024;-62
2021/04/09 01:34:18;;;;;;;24.83;11.57;;;77.40;1971.20;;;;;;5051795;28;20108;-61
2021/04/09 01:36:55;;;;;;;20.25;11.32;;;77.40;1996.80;;;;;;5051424;28;20497;-57
2021/04/09 01:39:20;;;;;;;22.25;13.48;;;77.20;2022.40;;;;;;5051401;28;20025;-59
2021/04/09 01:41:50;;;;;;;43.67;23.40;;;77.30;1971.20;;;;;;5051447;28;20492;-63
2021/04/09 01:44:17;;;;;;;33.53;18.77;;;77.40;1971.20;;;;;;5051232;28;20049;-62
2021/04/09 01:46:45;;;;;;;22.20;13.07;;;77.40;1971.20;;;;;;5051271;28;20063;-60
2021/04/09 01:49:12;;;;;;;63.50;32.50;;;77.30;1996.80;;;;;;5051252;28;20430;-64
2021/04/09 01:51:39;;;;;;;36.28;21.27;;;77.30;1971.20;;;;;;5051220;28;20104;-56
2021/04/09 01:54:07;;;;;;;36.50;18.85;;;77.20;1996.80;;;;;;5051166;28;20029;-56
2021/04/09 01:56:34;;;;;;;39.65;19.33;;;77.20;1996.80;;;;;;5050735;28;20064;-55
2021/04/09 01:59:01;;;;;;;32.85;20.45;;;77.10;1996.80;;;;;;5050857;28;20027;-56
2021/04/09 02:01:27;;;;;;;53.47;27.42;;;77.00;2022.40;;;;;;5050977;28;20091;-59
2021/04/09 02:03:54;;;;;;;42.63;21.90;;;77.00;2022.40;;;;;;5050742;28;20029;-56
2021/04/09 02:06:21;;;;;;;58.88;28.48;;;77.00;1996.80;;;;;;5050505;28;20021;-56
2021/04/09 02:08:48;;;;;;;42.30;19.75;;;77.10;2022.40;;;;;;5050851;28;20025;-55
2021/04/09 02:11:14;;;;;;;46.72;23.90;;;77.10;2022.40;;;;;;5050987;28;20017;-59
2021/04/09 02:13:40;;;;;;;27.88;13.88;;;77.20;1996.80;;;;;;5050681;28;20143;-56
2021/04/09 02:16:07;;;;;;;21.08;10.10;;;77.20;1996.80;;;;;;5050669;28;20482;-56
2021/04/09 02:18:32;;;;;;;18.15;9.68;;;77.10;2022.40;;;;;;5050472;28;20029;-58
2021/04/09 02:21:02;;;;;;;54.05;28.63;;;77.10;2022.40;;;;;;5050668;28;20032;-56
2021/04/09 02:23:29;;;;;;;23.17;14.73;;;77.10;2022.40;;;;;;5050763;28;20462;-55
2021/04/09 02:25:56;;;;;;;34.78;18.25;;;77.00;2048.00;;;;;;5050625;28;20159;-58
2021/04/09 02:28:23;;;;;;;30.90;16.45;;;77.10;2022.40;;;;;;5050401;28;20029;-56
2021/04/09 02:31:02;;;;;;;16.17;9.80;;;77.10;2022.40;;;;;;5055687;28;20057;-60
2021/04/09 02:33:30;;;;;;;22.38;12.10;;;76.90;2073.60;;;;;;5057555;28;20032;-55
2021/04/09 02:35:56;;;;;;;32.35;16.85;;;76.90;2048.00;;;;;;5060579;28;20497;-55
2021/04/09 02:38:22;;;;;;;22.67;13.48;;;76.90;2073.60;;;;;;5059517;28;20486;-55
2021/04/09 02:40:49;;;;;;;31.23;15.68;;;76.90;2048.00;;;;;;5059093;28;20025;-60
2021/04/09 02:43:15;;;;;;;23.33;11.95;;;77.00;2048.00;;;;;;5064363;28;20029;-55
2021/04/09 02:45:41;;;;;;;34.10;18.25;;;76.90;2073.60;;;;;;5070004;28;20048;-56
2021/04/09 02:48:11;;;;;;;32.90;18.15;;;76.80;2073.60;;;;;;5069897;28;20107;-56
2021/04/09 02:50:42;;;;;;;18.15;10.63;;;52.10;2099.20;;;;;;5070153;28;20544;-57
2021/04/09 02:53:32;;;;;;;53.38;18.90;;;52.00;2099.20;;;;;;5070216;28;20048;-55
2021/04/09 02:56:01;;;;;;;25.17;12.70;;;52.00;2099.20;;;;;;5070012;28;20031;-57
2021/04/09 02:58:29;;;;;;;17.20;9.68;;;52.10;2073.60;;;;;;5070370;28;20032;-57
2021/04/09 03:00:55;;;;;;;27.63;11.98;;;52.10;2073.60;;;;;;5070010;28;20427;-56
2021/04/09 03:03:22;;;;;;;17.55;10.15;;;52.10;2099.20;;;;;;5070008;28;20063;-56
2021/04/09 03:05:50;;;;;;;23.80;11.40;;;52.00;2099.20;;;;;;5070003;28;20104;-58
2021/04/09 03:08:17;;;;;;;27.38;13.52;;;52.10;2099.20;;;;;;5069977;28;20033;-57
2021/04/09 03:10:43;;;;;;;53.88;30.67;;;52.10;2073.60;;;;;;5069931;28;20107;-56
2021/04/09 03:13:09;;;;;;;50.05;30.83;;;52.10;2099.20;;;;;;5069963;28;20052;-57
2021/04/09 03:15:42;;;;;;;19.88;12.82;;;76.80;2073.60;;;;;;5069820;28;20108;-56
2021/04/09 03:18:19;;;;;;;19.90;7.82;;;52.10;2099.20;;;;;;5070037;28;20077;-61
2021/04/09 03:20:44;;;;;;;11.95;6.60;;;51.90;2150.40;;;;;;5070065;28;20021;-64
2021/04/09 03:23:11;;;;;;;21.02;12.43;;;51.90;2124.80;;;;;;5069941;28;20166;-57
2021/04/09 03:25:37;;;;;;;23.42;13.07;;;51.70;2176.00;;;;;;5070173;28;20024;-58
2021/04/09 03:28:06;;;;;;;72.75;36.38;;;51.70;2176.00;;;;;;5069935;28;20382;-59
2021/04/09 03:30:33;;;;;;;48.35;26.48;;;51.60;2201.60;;;;;;5069412;28;20024;-62
2021/04/09 03:32:59;;;;;;;38.08;22.75;;;51.70;2150.40;;;;;;5069781;28;20363;-56
2021/04/09 03:35:25;;;;;;;29.85;17.85;;;51.70;2150.40;;;;;;5069618;28;20463;-61
2021/04/09 03:37:50;;;;;;;29.38;15.30;;;51.70;2150.40;;;;;;5069566;28;20040;-56
2021/04/09 03:40:18;;;;;;;23.77;16.33;;;51.70;2150.40;;;;;;5069922;28;20459;-58
2021/04/09 03:42:44;;;;;;;20.92;13.52;;;51.80;2150.40;;;;;;5070027;28;20024;-59
2021/04/09 03:45:10;;;;;;;23.08;13.40;;;51.80;2150.40;;;;;;5069618;28;20045;-61
2021/04/09 03:47:36;;;;;;;25.85;13.43;;;51.80;2124.80;;;;;;5069775;28;20089;-59
2021/04/09 03:50:04;;;;;;;30.27;18.17;;;51.80;2124.80;;;;;;5069673;28;20526;-60
2021/04/09 03:52:30;;;;;;;28.88;14.43;;;51.90;2124.80;;;;;;5069439;28;20032;-59
2021/04/09 03:54:55;;;;;;;23.42;13.82;;;51.80;2124.80;;;;;;5069598;28;20024;-58
2021/04/09 03:57:21;;;;;;;24.50;13.02;;;51.80;2124.80;;;;;;5068128;28;20045;-57
2021/04/09 03:59:47;;;;;;;18.77;10.48;;;51.90;2124.80;;;;;;5070272;28;20028;-56
2021/04/09 04:02:12;;;;;;;15.18;9.25;;;51.90;2124.80;;;;;;5073304;28;20082;-59
2021/04/09 04:04:38;;;;;;;17.98;9.15;;;51.90;2099.20;;;;;;5073079;28;20063;-58
2021/04/09 04:07:04;;;;;;;16.17;9.75;;;51.90;2099.20;;;;;;5073134;28;20025;-57
2021/04/09 04:09:30;;;;;;;18.80;11.90;;;52.10;2099.20;;;;;;5073013;28;20039;-61
2021/04/09 04:11:56;;;;;;;24.00;13.30;;;52.10;2073.60;;;;;;5073367;28;20466;-58
2021/04/09 04:14:21;;;;;;;22.40;10.82;;;76.80;2073.60;;;;;;5072846;28;20107;-60
2021/04/09 04:16:47;;;;;;;18.90;12.23;;;76.90;2073.60;;;;;;5072838;28;20036;-59
2021/04/09 04:19:13;;;;;;;20.48;13.60;;;76.90;2073.60;;;;;;5067107;28;20032;-57
2021/04/09 04:21:42;;;;;;;37.15;21.13;;;77.00;2073.60;;;;;;5069941;28;20414;-57
2021/04/09 04:24:08;;;;;;;58.17;28.95;;;77.00;2048.00;;;;;;5073006;28;20028;-59
2021/04/09 04:26:33;;;;;;;64.90;32.63;;;77.00;2048.00;;;;;;5073064;28;20056;-60
2021/04/09 04:28:59;;;;;;;51.90;28.33;;;77.10;2048.00;;;;;;5072633;28;20059;-58
2021/04/09 04:31:26;;;;;;;36.65;21.83;;;77.20;2022.40;;;;;;5072690;28;20515;-60
2021/04/09 04:33:51;;;;;;;30.38;17.95;;;77.20;2022.40;;;;;;5072620;28;20490;-61
2021/04/09 04:36:17;;;;;;;28.38;17.20;;;77.30;1996.80;;;;;;5072632;28;20028;-59
2021/04/09 04:38:43;;;;;;;33.58;17.73;;;77.50;1971.20;;;;;;5072690;28;20405;-59
2021/04/09 04:41:08;;;;;;;32.00;16.67;;;77.60;1945.60;;;;;;5072499;28;20024;-56
2021/04/09 04:43:34;;;;;;;27.90;14.88;;;77.70;1945.60;;;;;;5072298;28;20043;-63
2021/04/09 04:46:00;;;;;;;27.92;16.73;;;102.40;1920.00;;;;;;5072511;28;20067;-60
2021/04/09 04:48:26;;;;;;;17.20;10.13;;;102.50;1920.00;;;;;;5072415;28;20059;-58
2021/04/09 04:50:53;;;;;;;25.55;13.85;;;102.60;1894.40;;;;;;5066174;28;20044;-61
2021/04/09 04:53:19;;;;;;;35.67;18.83;;;102.70;1894.40;;;;;;5052433;28;20068;-62
2021/04/09 04:55:45;;;;;;;36.70;17.65;;;102.90;1868.80;;;;;;5052192;28;20461;-58
2021/04/09 04:58:10;;;;;;;33.22;16.88;;;102.90;1868.80;;;;;;5052188;28;20427;-61
2021/04/09 05:00:36;;;;;;;21.60;11.27;;;103.00;1868.80;;;;;;5060915;28;20466;-56
2021/04/09 05:03:02;;;;;;;17.70;10.70;;;103.00;1868.80;;;;;;5071962;28;20028;-64
2021/04/09 05:05:28;;;;;;;34.45;16.27;;;103.10;1868.80;;;;;;5068955;28;20021;-57
2021/04/09 05:07:53;;;;;;;20.30;12.65;;;128.30;1817.60;;;;;;5062069;28;20481;-61
2021/04/09 05:10:19;;;;;;;29.95;18.00;;;205.20;1459.20;;;;;;5060170;28;20037;-59
2021/04/09 05:12:45;;;;;;;23.15;13.20;;;256.30;1280.00;;;;;;5077165;28;20032;-62
2021/04/09 05:15:11;;;;;;;18.42;12.20;;;282.10;1203.20;;;;;;5067372;28;20033;-61
2021/04/09 05:17:37;;;;;;;20.83;12.75;;;307.60;1126.40;;;;;;5070493;28;20039;-62
2021/04/09 05:20:04;;;;;;;20.17;15.18;;;333.30;1075.20;;;;;;5069389;28;20024;-61
2021/04/09 05:22:30;;;;;;;94.30;74.90;;;358.50;998.40;;;;;;5077750;28;20047;-59
2021/04/09 05:24:56;;;;;;;34.50;29.33;;;333.40;1049.60;;;;;;5076063;28;20028;-61
2021/04/09 05:27:22;;;;;;;40.78;31.70;;;333.40;1049.60;;;;;;5084160;28;20028;-61
2021/04/09 05:29:47;;;;;;;37.05;32.72;;;307.70;1100.80;;;;;;5084428;28;20036;-63
2021/04/09 05:32:13;;;;;;;54.58;40.83;;;332.90;1100.80;;;;;;5074204;28;20042;-59
2021/04/09 05:34:40;;;;;;;84.35;68.18;;;358.60;998.40;;;;;;5074101;28;20020;-59
2021/04/09 05:37:07;;;;;;;85.50;64.97;;;384.30;921.60;;;;;;5073838;28;20478;-60
2021/04/09 05:39:35;;;;;;;165.88;129.68;;;384.10;921.60;;;;;;5074081;28;20016;-67
2021/04/09 05:42:00;;;;;;;139.77;108.05;;;384.00;947.20;;;;;;5073596;28;20024;-68
2021/04/09 05:44:30;;;;;;;65.65;56.03;;;384.80;896.00;;;;;;5073724;28;20040;-67
2021/04/09 05:46:56;;;;;;;28.17;25.13;;;409.60;921.60;;;;;;5083346;28;20036;-67
2021/04/09 05:49:22;;;;;;;32.78;29.38;;;384.70;896.00;;;;;;5083465;28;20418;-69
2021/04/09 05:51:47;;;;;;;21.25;19.05;;;435.30;844.80;;;;;;5083640;28;20060;-67
2021/04/09 05:54:13;;;;;;;30.33;27.15;;;435.90;793.60;;;;;;5082907;28;20020;-69
2021/04/09 05:56:39;;;;;;;28.33;25.13;;;436.10;768.00;;;;;;5083393;28;20406;-67
2021/04/09 05:59:05;;;;;;;50.60;40.17;;;461.20;768.00;;;;;;5083498;28;20020;-68
2021/04/09 06:01:30;;;;;;;64.57;57.75;;;487.10;691.20;;;;;;5082820;28;20352;-69
2021/04/09 06:03:56;;;;;;;45.15;40.58;;;487.30;691.20;;;;;;5078645;28;20017;-65
2021/04/09 06:06:22;;;;;;;83.40;71.30;;;512.50;665.60;;;;;;5075510;28;20163;-68
2021/04/09 06:08:48;;;;;;;26.17;23.35;;;538.00;665.60;;;;;;5073728;28;20028;-66
2021/04/09 06:11:14;;;;;;;18.63;16.70;;;538.00;640.00;;;;;;5077244;28;20115;-70
2021/04/09 06:13:39;;;;;;;34.78;31.10;;;563.50;665.60;;;;;;5085104;28;20056;-67
2021/04/09 06:16:08;;;;;;;27.75;25.20;;;564.10;614.40;;;;;;5093165;28;20075;-68
2021/04/09 06:18:34;;;;;;;37.58;33.58;;;563.70;614.40;;;;;;5092825;28;20020;-67
2021/04/09 06:21:00;;;;;;;35.38;32.00;;;588.80;588.80;;;;;;5090276;28;20024;-67
2021/04/09 06:23:25;;;;;;;27.48;25.00;;;589.50;563.20;;;;;;5090059;28;20111;-67
2021/04/09 06:25:51;;;;;;;19.95;18.35;;;589.50;537.60;;;;;;5090492;28;20466;-68
2021/04/09 06:28:17;;;;;;;20.98;19.38;;;614.50;537.60;;;;;;5091043;28;20023;-67
2021/04/09 06:30:43;;;;;;;37.03;34.15;;;640.00;486.40;;;;;;5090758;28;20024;-67
2021/04/09 06:33:09;;;;;;;24.58;22.67;;;640.40;486.40;;;;;;5091780;28;20012;-67
2021/04/09 06:35:35;;;;;;;25.80;23.88;;;665.60;486.40;;;;;;5092957;28;20386;-67
2021/04/09 06:38:00;;;;;;;18.85;17.35;;;666.20;460.80;;;;;;5094258;28;20326;-71
2021/04/09 06:40:27;;;;;;;19.90;18.33;;;691.20;435.20;;;;;;5091842;28;20016;-68
2021/04/09 06:42:57;;;;;;;25.35;23.35;;;691.20;460.80;;;;;;5090569;28;20362;-67
2021/04/09 06:45:24;;;;;;;22.42;20.17;;;691.30;460.80;;;;;;5090165;28;20055;-66
2021/04/09 06:47:51;;;;;;;27.88;25.02;;;717.00;435.20;;;;;;5090567;28;20032;-68
2021/04/09 06:50:17;;;;;;;22.25;20.33;;;717.60;409.60;;;;;;5090766;28;20075;-67
2021/04/09 06:52:43;;;;;;;16.95;15.43;;;742.40;409.60;;;;;;5090476;28;20024;-67
2021/04/09 06:55:10;;;;;;;16.20;14.90;;;743.10;384.00;;;;;;5090458;28;20024;-67
2021/04/09 06:57:39;;;;;;;46.60;41.75;;;742.80;409.60;;;;;;5090162;28;20470;-66
2021/04/09 07:00:07;;;;;;;17.63;16.25;;;717.50;384.00;;;;;;5090253;28;20031;-67
2021/04/09 07:02:33;;;;;;;96.43;89.25;;;717.40;384.00;;;;;;5089744;28;20822;-69
2021/04/09 07:04:59;;;;;;;63.42;59.05;;;742.40;409.60;;;;;;5090049;28;20020;-67
2021/04/09 07:07:25;;;;;;;48.85;44.95;;;742.90;384.00;;;;;;5090579;28;20405;-67
2021/04/09 07:09:51;;;;;;;15.90;14.45;;;743.30;358.40;;;;;;5089803;28;20024;-68
2021/04/09 07:12:25;;;;;;;48.42;43.97;;;768.60;332.80;;;;;;5090399;28;20020;-68
2021/04/09 07:14:58;;;;;;;26.15;23.55;;;768.90;332.80;;;;;;5090113;28;20028;-68
2021/04/09 07:17:26;;;;;;;37.15;33.83;;;768.60;307.20;;;;;;5090155;28;20044;-67
2021/04/09 07:20:13;;;;;;;61.58;55.00;;;793.90;307.20;;;;;;5093980;28;20024;-69
2021/04/09 07:22:41;;;;;;;42.28;38.28;;;768.60;307.20;;;;;;5090282;28;20514;-68
2021/04/09 07:25:16;;;;;;;23.75;21.20;;;768.50;307.20;;;;;;5091271;28;20073;-66
2021/04/09 07:27:44;;;;;;;13.40;12.30;;;793.60;332.80;;;;;;5089634;28;20043;-68
2021/04/09 07:30:14;;;;;;;24.55;22.45;;;794.30;307.20;;;;;;5090042;28;20028;-67
2021/04/09 07:32:40;;;;;;;14.65;13.20;;;794.40;332.80;;;;;;5090022;28;20070;-68
2021/04/09 07:35:07;;;;;;;12.18;11.07;;;794.50;307.20;;;;;;5091894;28;20032;-68
2021/04/09 07:38:08;;;;;;;18.75;17.10;;;819.20;307.20;;;;;;5093969;28;20044;-69
2021/04/09 07:40:33;;;;;;;24.15;21.85;;;819.30;332.80;;;;;;5011911;28;20026;-69
2021/04/09 07:43:01;;;;;;;15.98;14.30;;;844.80;307.20;;;;;;5011819;28;20518;-69
2021/04/09 07:45:30;;;;;;;16.45;15.05;;;845.70;281.60;;;;;;5011749;28;20041;-69
2021/04/09 07:47:58;;;;;;;9.30;8.50;;;819.30;281.60;;;;;;5011617;28;20081;-68
2021/04/09 07:50:36;;;;;;;8.90;8.05;;;819.60;281.60;;;;;;5011899;28;20022;-67
2021/04/09 07:53:01;;;;;;;11.32;10.20;;;820.10;281.60;;;;;;5011602;28;20152;-69
2021/04/09 07:55:29;;;;;;;14.70;13.40;;;820.10;281.60;;;;;;5004395;28;20156;-69
2021/04/09 07:57:56;;;;;;;11.65;10.68;;;819.20;281.60;;;;;;4988749;28;20448;-66
2021/04/09 08:00:25;;;;;;;10.50;9.32;;;793.60;307.20;;;;;;4982932;28;20579;-66
2021/04/09 08:02:53;;;;;;;10.60;9.00;;;742.80;332.80;;;;;;4985880;28;20518;-65
2021/04/09 08:05:23;;;;;;;9.27;8.48;;;717.20;358.40;;;;;;4997853;28;20206;-67
2021/04/09 08:07:49;;;;;;;13.50;12.05;;;692.10;332.80;;;;;;4990949;28;20034;-68
2021/04/09 08:10:17;;;;;;;15.55;13.15;;;692.00;332.80;;;;;;4997300;28;20113;-68
2021/04/09 08:12:51;;;;;;;11.82;10.63;;;768.30;307.20;;;;;;4991931;28;20026;-66
2021/04/09 08:15:32;;;;;;;10.15;9.15;;;742.90;332.80;;;;;;5038912;28;20174;-70
2021/04/09 08:18:09;;;;;;;14.80;13.15;;;793.80;307.20;;;;;;5054594;28;20491;-71
2021/04/09 08:20:43;;;;;;;14.60;10.60;;;794.20;281.60;;;;;;5053609;28;20029;-67
2021/04/09 08:23:14;;;;;;;33.15;22.75;;;820.10;256.00;;;;;;5053709;28;20025;-70
2021/04/09 08:25:41;;;;;;;29.80;26.70;;;845.20;281.60;;;;;;5053357;28;20059;-66
2021/04/09 08:28:12;;;;;;;24.55;22.58;;;845.30;281.60;;;;;;5061568;28;20032;-68
2021/04/09 08:30:43;;;;;;;10.38;9.32;;;844.90;256.00;;;;;;5055124;28;20029;-67
2021/04/09 08:33:09;;;;;;;32.63;23.02;;;768.30;307.20;;;;;;5056233;28;20028;-69
2021/04/09 08:35:35;;;;;;;9.90;8.90;;;794.00;307.20;;;;;;5054139;28;20021;-68
2021/04/09 08:38:03;;;;;;;12.10;10.88;;;717.10;332.80;;;;;;5052536;28;20048;-67
2021/04/09 08:40:29;;;;;;;13.32;12.00;;;691.40;358.40;;;;;;5052593;28;20027;-69
2021/04/09 08:42:55;;;;;;;9.48;8.57;;;691.20;384.00;;;;;;5062381;28;20029;-66
2021/04/09 08:45:21;;;;;;;11.70;9.38;;;716.90;332.80;;;;;;5072046;28;20383;-69
2021/04/09 08:47:54;;;;;;;13.02;11.73;;;691.60;358.40;;;;;;5071565;28;20035;-68
2021/04/09 08:50:20;;;;;;;;;;;640.90;358.40;;;;;;5072738;28;20024;-68
2021/04/09 08:52:47;;;;;;;14.82;13.45;;;589.40;435.20;;;;;;5071559;28;19908;-67
2021/04/09 08:55:14;;;;;;;7.80;6.50;;;564.10;486.40;;;;;;5052201;28;20031;-67
2021/04/09 08:57:44;;;;;;;8.13;7.32;;;538.10;512.00;;;;;;5052161;28;20048;-67
2021/04/09 09:00:14;;;;;;;10.25;8.52;;;537.90;512.00;;;;;;5056909;28;20017;-67
2021/04/09 09:02:47;;;;;;;15.30;12.30;;;486.90;563.20;;;;;;5072564;28;20028;-68
2021/04/09 09:05:16;;;;;;;12.20;8.88;;;486.90;563.20;;;;;;5072399;28;20047;-67
2021/04/09 09:07:51;;;;;;;8.32;5.72;;;461.40;614.40;;;;;;5072121;28;20454;-69
2021/04/09 09:10:22;;;;;;;39.63;24.00;;;461.40;588.80;;;;;;5072364;28;20025;-67
2021/04/09 09:13:05;;;;;;;75.15;44.97;;;461.70;614.40;;;;;;5072647;28;20095;-66
2021/04/09 09:18:31;;;;;;;12.15;9.80;;;486.40;588.80;;;;;;5072099;28;20036;-67
2021/04/09 09:21:20;;;;;;;9.68;6.10;;;486.50;588.80;;;;;;5061788;28;20028;-67
2021/04/09 09:23:46;;;;;;;14.02;9.85;;;460.80;665.60;;;;;;5072796;28;20037;-67
2021/04/09 09:26:18;;;;;;;46.35;28.75;;;461.10;665.60;;;;;;5072382;28;20025;-67
2021/04/09 09:28:47;;;;;;;143.25;62.45;;;436.10;665.60;;;;;;5071943;28;20025;-68
2021/04/09 09:31:27;;;;;;;577.75;307.55;;;436.10;640.00;;;;;;5072271;28;20025;-66
2021/04/09 09:34:23;;;;;;;20.55;11.50;;;460.80;665.60;;;;;;5071359;28;20032;-67
2021/04/09 09:36:59;;;;;;;13.30;8.85;;;436.10;640.00;;;;;;5071366;28;20028;-67
2021/04/09 09:39:46;;;;;;;17.65;11.18;;;435.90;716.80;;;;;;5071395;28;20023;-66
2021/04/09 09:42:25;;;;;;;10.65;6.32;;;435.90;665.60;;;;;;5071465;28;20020;-66
2021/04/09 09:44:58;;;;;;;11.32;7.63;;;436.10;716.80;;;;;;5071009;28;20044;-66
2021/04/09 09:47:31;;;;;;;54.83;31.67;;;435.90;691.20;;;;;;5071622;28;20049;-66
2021/04/09 09:50:08;;;;;;;13.07;8.18;;;436.10;640.00;;;;;;5071193;28;20021;-66
2021/04/09 09:52:55;;;;;;;23.02;14.65;;;410.30;665.60;;;;;;5071463;28;20174;-66
2021/04/09 09:55:40;;;;;;;26.05;14.98;;;410.40;665.60;;;;;;5070972;28;20406;-66
2021/04/09 09:58:19;;;;;;;13.02;7.90;;;435.40;691.20;;;;;;5071023;28;20032;-66
2021/04/09 10:01:00;;;;;;;15.80;10.10;;;435.20;640.00;;;;;;5071050;28;20066;-66
2021/04/09 10:03:29;;;;;;;24.05;14.27;;;410.20;665.60;;;;;;5071256;28;20055;-66
2021/04/09 10:06:00;;;;;;;14.50;11.05;;;410.30;665.60;;;;;;5070846;28;20066;-66
2021/04/09 10:08:28;;;;;;;25.80;17.55;;;435.30;665.60;;;;;;5070903;28;20024;-67
2021/04/09 10:10:54;;;;;;;12.80;8.00;;;435.60;614.40;;;;;;5071028;28;20212;-67
2021/04/09 10:13:26;;;;;;;9.30;6.25;;;410.40;614.40;;;;;;5070440;28;20074;-67
2021/04/09 10:16:04;;;;;;;10.50;5.95;;;384.50;640.00;;;;;;5071120;28;20035;-66
2021/04/09 10:18:30;;;;;;;20.27;11.95;;;409.60;640.00;;;;;;5063608;28;20056;-68
2021/04/09 10:20:55;;;;;;;19.02;13.05;;;409.70;665.60;;;;;;5070928;28;20435;-66
2021/04/09 10:23:24;;;;;;;32.63;19.88;;;409.90;640.00;;;;;;5071286;28;20028;-66
2021/04/09 10:25:53;;;;;;;15.55;9.57;;;410.00;665.60;;;;;;5062497;28;20100;-66
2021/04/09 10:28:22;;;;;;;17.58;10.88;;;410.10;691.20;;;;;;5067574;28;20052;-69
2021/04/09 10:30:52;;;;;;;10.32;7.70;;;409.90;665.60;;;;;;5070045;28;20503;-68
2021/04/09 10:33:19;;;;;;;18.05;11.90;;;409.90;665.60;;;;;;5070402;28;20028;-66
2021/04/09 10:35:45;;;;;;;11.52;7.38;;;410.10;691.20;;;;;;5070587;28;20059;-68
2021/04/09 10:38:16;;;;;;;21.10;14.20;;;410.00;640.00;;;;;;5070473;28;20426;-67
2021/04/09 10:40:55;;;;;;;41.33;27.30;;;409.90;665.60;;;;;;5070491;28;20017;-66
2021/04/09 10:43:35;;;;;;;23.38;13.15;;;409.70;665.60;;;;;;5070317;28;20028;-67
2021/04/09 10:46:09;;;;;;;11.43;7.20;;;384.10;640.00;;;;;;5070102;28;20091;-67
2021/04/09 10:48:35;;;;;;;9.70;6.15;;;384.00;640.00;;;;;;5070534;28;20081;-67
2021/04/09 10:51:01;;;;;;;15.10;8.40;;;384.00;640.00;;;;;;5070882;28;20394;-67
2021/04/09 10:53:27;;;;;;;30.90;17.95;;;384.40;691.20;;;;;;5070526;28;20024;-66
2021/04/09 10:56:00;;;;;;;25.30;17.88;;;384.10;691.20;;;;;;5070151;28;20474;-66
2021/04/09 10:58:25;;;;;;;18.05;14.00;;;359.30;716.80;;;;;;5070297;28;20193;-66
2021/04/09 11:00:51;;;;;;;21.35;14.75;;;384.00;691.20;;;;;;5069928;28;20028;-68
2021/04/09 11:03:24;;;;;;;19.98;11.80;;;384.10;691.20;;;;;;5070417;28;20031;-70
2021/04/09 11:05:49;;;;;;;13.50;9.40;;;359.30;691.20;;;;;;5069986;28;20020;-67
2021/04/09 11:08:38;;;;;;;10.70;7.63;;;384.00;691.20;;;;;;5069971;28;20085;-67
2021/04/09 11:11:12;;;;;;;26.73;15.45;;;384.30;793.60;;;;;;5069975;28;20032;-66
2021/04/09 11:13:39;;;;;;;21.92;13.98;;;384.30;691.20;;;;;;5070182;28;20029;-66
2021/04/09 11:16:23;;;;;;;14.75;9.32;;;384.50;716.80;;;;;;5070656;28;20033;-69
2021/04/09 11:18:52;;;;;;;;;;;384.60;665.60;;;;;;5070819;28;20082;-66
2021/04/09 11:21:47;;;;;;;14.90;8.57;;;384.70;691.20;;;;;;5069993;28;19904;-66
2021/04/09 11:24:22;;;;;;;45.35;31.15;;;384.30;665.60;;;;;;5069785;28;20127;-66
2021/04/09 11:26:48;;;;;;;25.05;16.40;;;384.60;640.00;;;;;;5076586;28;20021;-67
2021/04/09 11:29:40;;;;;;;18.63;13.07;;;384.80;691.20;;;;;;5080880;28;20017;-68
2021/04/09 11:32:12;;;;;;;20.17;14.05;;;384.90;665.60;;;;;;5078616;28;20036;-67
2021/04/09 11:34:41;;;;;;;13.15;8.93;;;384.60;665.60;;;;;;5075981;28;20103;-66
2021/04/09 11:37:08;;;;;;;10.52;7.07;;;384.30;665.60;;;;;;5070304;28;20050;-66
2021/04/09 11:39:33;;;;;;;16.70;10.60;;;384.20;665.60;;;;;;5069622;28;20127;-67
2021/04/09 11:42:02;;;;;;;61.70;47.95;;;384.30;691.20;;;;;;5069666;28;20107;-68
2021/04/09 11:44:38;;;;;;;21.70;14.07;;;384.50;716.80;;;;;;5069632;28;20128;-66
2021/04/09 11:47:22;;;;;;;35.78;20.70;;;384.90;742.40;;;;;;5069960;28;20025;-67
2021/04/09 11:50:04;;;;;;;15.57;11.85;;;384.60;665.60;;;;;;5070267;28;20048;-67
2021/04/09 11:52:29;;;;;;;26.15;18.98;;;384.20;691.20;;;;;;5069439;28;20021;-67
2021/04/09 11:54:55;;;;;;;13.18;6.95;;;384.40;665.60;;;;;;5070444;28;20394;-66
2021/04/09 11:57:23;;;;;;;16.50;13.00;;;384.00;640.00;;;;;;5069938;28;20067;-66
2021/04/09 11:59:50;;;;;;;11.57;8.55;;;384.40;665.60;;;;;;5068029;28;20120;-67
2021/04/09 12:02:26;;;;;;;19.05;12.90;;;384.20;640.00;;;;;;5069986;28;20031;-67
2021/04/09 12:04:52;;;;;;;16.13;10.48;;;384.50;665.60;;;;;;5069756;28;20059;-67
2021/04/09 12:07:27;;;;;;;19.15;10.65;;;384.40;691.20;;;;;;5069726;28;20017;-67
2021/04/09 12:09:54;;;;;;;11.65;7.00;;;384.30;640.00;;;;;;5069729;28;20028;-67
2021/04/09 12:12:21;;;;;;;14.18;8.43;;;359.30;691.20;;;;;;5069959;28;20044;-68
2021/04/09 12:14:54;;;;;;;40.55;26.17;;;384.20;640.00;;;;;;5069778;28;20079;-67
2021/04/09 12:17:22;;;;;;;11.90;8.60;;;384.70;665.60;;;;;;5069257;28;20066;-66
2021/04/09 12:19:53;;;;;;;49.45;26.98;;;384.10;665.60;;;;;;5069417;28;20378;-67
2021/04/09 12:22:18;;;;;;;22.52;12.65;;;359.10;665.60;;;;;;5070939;28;20488;-67